createdAt,value
2018-05-11T00:00:49.176Z,54.16
2018-05-11T00:01:49.009Z,54.17
2018-05-11T00:02:49.208Z,54.2
2018-05-11T00:03:49.065Z,54.16
2018-05-11T00:04:49.152Z,54.11
2018-05-11T00:05:49.038Z,54.15
2018-05-11T00:06:48.982Z,54.13
2018-05-11T00:07:49.101Z,54.13
2018-05-11T00:08:49.069Z,54.15
2018-05-11T00:09:49.248Z,54.14
2018-05-11T00:10:49.195Z,54.1
2018-05-11T00:11:49.537Z,54.12
2018-05-11T00:12:49.061Z,54.11
2018-05-11T00:13:48.980Z,54.12
2018-05-11T00:14:49.216Z,54.15
2018-05-11T00:15:49.157Z,54.16
2018-05-11T00:16:49.181Z,54.13
2018-05-11T00:17:49.150Z,54.07
2018-05-11T00:18:49.068Z,54.13
2018-05-11T00:19:49.012Z,54.07
2018-05-11T00:20:48.982Z,54.08
2018-05-11T00:21:49.147Z,54.13
2018-05-11T00:22:49.048Z,54.16
2018-05-11T00:23:48.997Z,54.13
2018-05-11T00:24:49.231Z,54.16
2018-05-11T00:25:49.155Z,54.16
2018-05-11T00:26:49.088Z,54.22
2018-05-11T00:27:49.023Z,54.18
2018-05-11T00:28:49.084Z,54.2
2018-05-11T00:29:49.140Z,54.2
2018-05-11T00:30:49.087Z,54.16
2018-05-11T00:31:49.287Z,54.09
2018-05-11T00:32:49.037Z,54.12
2018-05-11T00:33:49.091Z,54.13
2018-05-11T00:34:49.021Z,54.1
2018-05-11T00:35:49.192Z,54.13
2018-05-11T00:36:49.135Z,54.1
2018-05-11T00:37:49.151Z,54.09
2018-05-11T00:38:49.278Z,54.15
2018-05-11T00:39:49.050Z,54.09
2018-05-11T00:40:49.204Z,54.1
2018-05-11T00:41:49.066Z,54.11
2018-05-11T00:42:49.136Z,54.13
2018-05-11T00:43:49.065Z,54.11
2018-05-11T00:44:49.182Z,54.13
2018-05-11T00:45:49.149Z,54.08
2018-05-11T00:46:49.216Z,54.13
2018-05-11T00:47:49.315Z,54.12
2018-05-11T00:48:49.061Z,54.11
2018-05-11T00:49:49.192Z,54.06
2018-05-11T00:50:49.031Z,54.08
2018-05-11T00:51:49.052Z,54.13
2018-05-11T00:52:49.043Z,54.1
2018-05-11T00:53:49.290Z,54.11
2018-05-11T00:54:49.123Z,54.07
2018-05-11T00:55:49.152Z,54.1
2018-05-11T00:56:49.169Z,54.09
2018-05-11T00:57:49.229Z,54.07
2018-05-11T00:58:49.262Z,54.06
2018-05-11T00:59:49.348Z,54.1
2018-05-11T01:00:49.133Z,54.06
2018-05-11T01:01:49.394Z,54.12
2018-05-11T01:02:49.086Z,54.06
2018-05-11T01:03:49.377Z,54.05
2018-05-11T01:04:49.123Z,54.02
2018-05-11T01:05:49.009Z,54.06
2018-05-11T01:06:49.189Z,54.06
2018-05-11T01:07:49.289Z,54.08
2018-05-11T01:08:49.285Z,54.06
2018-05-11T01:09:49.047Z,54.07
2018-05-11T01:10:49.080Z,54.05
2018-05-11T01:11:48.995Z,54.03
2018-05-11T01:12:49.202Z,54.06
2018-05-11T01:13:48.814Z,54.03
2018-05-11T01:14:49.170Z,54.05
2018-05-11T01:15:49.050Z,54.06
2018-05-11T01:16:49.549Z,54.05
2018-05-11T01:17:49.208Z,54.05
2018-05-11T01:18:49.209Z,53.98
2018-05-11T01:19:49.243Z,53.99
2018-05-11T01:20:49.236Z,54.03
2018-05-11T01:21:49.114Z,54.04
2018-05-11T01:22:49.239Z,54.06
2018-05-11T01:23:48.993Z,54.1
2018-05-11T01:24:49.144Z,54.08
2018-05-11T01:25:49.034Z,54.04
2018-05-11T01:26:49.177Z,54.07
2018-05-11T01:27:49.124Z,54.1
2018-05-11T01:28:49.278Z,54.07
2018-05-11T01:29:49.133Z,54.07
2018-05-11T01:30:48.992Z,54.04
2018-05-11T01:31:49.158Z,54.03
2018-05-11T01:32:49.032Z,54.05
2018-05-11T01:33:49.210Z,54.04
2018-05-11T01:34:49.015Z,54.04
2018-05-11T01:35:49.222Z,54.06
2018-05-11T01:36:49.169Z,54.07
2018-05-11T01:37:48.972Z,54.09
2018-05-11T01:38:49.147Z,54.04
2018-05-11T01:39:49.740Z,54.09
2018-05-11T01:40:49.172Z,54.11
2018-05-11T01:41:49.172Z,54.08
2018-05-11T01:42:49.017Z,54.1
2018-05-11T01:43:49.131Z,54.09
2018-05-11T01:44:49.098Z,54.05
2018-05-11T01:45:49.171Z,54.01
2018-05-11T01:46:49.077Z,54.09
2018-05-11T01:47:49.101Z,54.04
2018-05-11T01:48:49.848Z,54.06
2018-05-11T01:49:49.219Z,54.07
2018-05-11T01:50:49.000Z,54.06
2018-05-11T01:51:48.950Z,54.04
2018-05-11T01:52:49.332Z,54.07
2018-05-11T01:53:49.088Z,54.06
2018-05-11T01:54:49.109Z,54.08
2018-05-11T01:55:49.036Z,54.06
2018-05-11T01:56:49.021Z,54.08
2018-05-11T01:57:49.225Z,54.06
2018-05-11T01:58:48.953Z,54.06
2018-05-11T01:59:49.044Z,54.07
2018-05-11T02:00:49.016Z,54.04
2018-05-11T02:01:49.317Z,54.02
2018-05-11T02:02:48.990Z,54.05
2018-05-11T02:03:49.038Z,54.05
2018-05-11T02:04:49.282Z,54.04
2018-05-11T02:05:49.546Z,54.07
2018-05-11T02:06:49.221Z,54.03
2018-05-11T02:07:49.192Z,54.02
2018-05-11T02:08:49.067Z,54.04
2018-05-11T02:09:49.359Z,54.04
2018-05-11T02:10:49.093Z,54.02
2018-05-11T02:11:49.137Z,54.02
2018-05-11T02:12:48.982Z,54.06
2018-05-11T02:13:49.217Z,54.06
2018-05-11T02:14:49.080Z,54.06
2018-05-11T02:15:49.463Z,54.03
2018-05-11T02:16:49.254Z,54
2018-05-11T02:17:48.980Z,54.01
2018-05-11T02:18:48.986Z,54.04
2018-05-11T02:19:49.009Z,53.99
2018-05-11T02:20:49.281Z,54.01
2018-05-11T02:21:49.108Z,53.99
2018-05-11T02:22:49.278Z,54.02
2018-05-11T02:23:48.999Z,54.04
2018-05-11T02:24:49.036Z,53.98
2018-05-11T02:25:50.185Z,54
2018-05-11T02:26:49.040Z,54
2018-05-11T02:27:49.259Z,53.99
2018-05-11T02:28:49.087Z,53.98
2018-05-11T02:29:49.169Z,53.98
2018-05-11T02:30:49.123Z,53.96
2018-05-11T02:31:49.253Z,53.95
2018-05-11T02:32:49.216Z,53.99
2018-05-11T02:33:49.036Z,53.98
2018-05-11T02:34:49.199Z,53.96
2018-05-11T02:35:49.103Z,53.99
2018-05-11T02:36:49.109Z,54.01
2018-05-11T02:37:49.117Z,54
2018-05-11T02:38:49.218Z,53.98
2018-05-11T02:39:49.208Z,53.99
2018-05-11T02:40:48.962Z,54.02
2018-05-11T02:41:49.123Z,54.02
2018-05-11T02:42:49.145Z,53.94
2018-05-11T02:43:49.078Z,53.97
2018-05-11T02:44:49.073Z,53.97
2018-05-11T02:45:49.127Z,53.97
2018-05-11T02:46:49.101Z,54
2018-05-11T02:47:48.994Z,54
2018-05-11T02:48:49.050Z,54.03
2018-05-11T02:49:49.033Z,53.97
2018-05-11T02:50:49.077Z,53.97
2018-05-11T02:51:49.189Z,53.95
2018-05-11T02:52:49.592Z,53.96
2018-05-11T02:53:49.173Z,53.95
2018-05-11T02:54:49.123Z,53.95
2018-05-11T02:55:49.113Z,53.98
2018-05-11T02:56:49.137Z,53.97
2018-05-11T02:57:49.190Z,54.02
2018-05-11T02:58:49.118Z,54
2018-05-11T02:59:49.034Z,53.98
2018-05-11T03:00:49.005Z,53.98
2018-05-11T03:02:20.493Z,53.94
2018-05-11T03:02:49.210Z,53.99
2018-05-11T03:03:49.033Z,53.94
2018-05-11T03:04:49.207Z,53.97
2018-05-11T03:05:49.029Z,54
2018-05-11T03:06:49.137Z,53.94
2018-05-11T03:07:49.194Z,53.99
2018-05-11T03:08:49.111Z,54
2018-05-11T03:09:48.981Z,54.01
2018-05-11T03:10:49.119Z,54.02
2018-05-11T03:11:49.102Z,54.01
2018-05-11T03:12:49.074Z,53.98
2018-05-11T03:13:49.076Z,53.97
2018-05-11T03:14:49.181Z,54
2018-05-11T03:15:48.982Z,54.01
2018-05-11T03:16:49.147Z,53.98
2018-05-11T03:17:49.185Z,54
2018-05-11T03:18:49.673Z,53.96
2018-05-11T03:19:49.151Z,53.95
2018-05-11T03:20:49.276Z,54.01
2018-05-11T03:21:49.118Z,53.94
2018-05-11T03:22:49.073Z,53.92
2018-05-11T03:23:49.160Z,53.92
2018-05-11T03:24:49.139Z,53.96
2018-05-11T03:25:48.937Z,53.97
2018-05-11T03:26:49.031Z,53.94
2018-05-11T03:27:49.561Z,53.95
2018-05-11T03:28:49.061Z,53.95
2018-05-11T03:29:49.116Z,53.94
2018-05-11T03:30:49.012Z,53.91
2018-05-11T03:31:49.286Z,53.93
2018-05-11T03:32:49.102Z,53.93
2018-05-11T03:33:48.980Z,53.94
2018-05-11T03:34:49.028Z,53.91
2018-05-11T03:35:49.117Z,53.93
2018-05-11T03:36:49.172Z,53.96
2018-05-11T03:37:49.405Z,53.95
2018-05-11T03:38:49.034Z,53.96
2018-05-11T03:39:49.046Z,53.98
2018-05-11T03:40:49.144Z,54
2018-05-11T03:41:49.093Z,53.96
2018-05-11T03:42:49.295Z,53.97
2018-05-11T03:43:49.227Z,53.97
2018-05-11T03:44:49.056Z,53.93
2018-05-11T03:45:49.175Z,53.92
2018-05-11T03:46:48.909Z,53.91
2018-05-11T03:47:49.087Z,53.89
2018-05-11T03:48:49.198Z,53.89
2018-05-11T03:49:49.024Z,53.97
2018-05-11T03:50:48.932Z,53.94
2018-05-11T03:51:49.054Z,53.94
2018-05-11T03:52:48.956Z,53.96
2018-05-11T03:53:48.950Z,53.9
2018-05-11T03:54:49.052Z,53.95
2018-05-11T03:55:49.056Z,53.94
2018-05-11T03:56:49.054Z,53.93
2018-05-11T03:57:49.473Z,53.92
2018-05-11T03:58:49.100Z,53.92
2018-05-11T03:59:49.321Z,53.95
2018-05-11T04:00:48.916Z,53.89
2018-05-11T04:01:49.117Z,53.93
2018-05-11T04:02:48.938Z,53.9
2018-05-11T04:03:48.929Z,53.9
2018-05-11T04:04:49.091Z,53.93
2018-05-11T04:05:49.038Z,53.89
2018-05-11T04:06:49.154Z,53.89
2018-05-11T04:07:48.907Z,53.86
2018-05-11T04:08:48.956Z,53.84
2018-05-11T04:09:49.050Z,53.86
2018-05-11T04:10:49.215Z,53.89
2018-05-11T04:11:49.162Z,53.88
2018-05-11T04:12:49.229Z,53.89
2018-05-11T04:13:49.283Z,53.89
2018-05-11T04:14:48.957Z,53.95
2018-05-11T04:15:48.983Z,53.92
2018-05-11T04:16:49.183Z,53.94
2018-05-11T04:17:49.040Z,53.87
2018-05-11T04:18:49.149Z,53.9
2018-05-11T04:19:49.077Z,53.89
2018-05-11T04:20:49.745Z,53.86
2018-05-11T04:21:49.037Z,53.91
2018-05-11T04:22:49.048Z,53.89
2018-05-11T04:23:48.938Z,53.89
2018-05-11T04:24:49.003Z,53.9
2018-05-11T04:25:49.321Z,53.89
2018-05-11T04:26:49.026Z,53.91
2018-05-11T04:27:49.116Z,53.87
2018-05-11T04:28:48.978Z,53.86
2018-05-11T04:29:48.900Z,53.87
2018-05-11T04:30:49.144Z,53.86
2018-05-11T04:31:49.076Z,53.81
2018-05-11T04:32:48.902Z,53.84
2018-05-11T04:33:49.107Z,53.86
2018-05-11T04:34:49.238Z,53.84
2018-05-11T04:35:48.919Z,53.87
2018-05-11T04:36:49.137Z,53.84
2018-05-11T04:37:48.973Z,53.83
2018-05-11T04:38:49.280Z,53.84
2018-05-11T04:39:48.961Z,53.84
2018-05-11T04:40:49.084Z,53.81
2018-05-11T04:41:49.042Z,53.84
2018-05-11T04:42:48.942Z,53.83
2018-05-11T04:43:49.134Z,53.84
2018-05-11T04:44:49.142Z,53.84
2018-05-11T04:45:48.964Z,53.85
2018-05-11T04:46:49.132Z,53.8
2018-05-11T04:47:49.083Z,53.81
2018-05-11T04:48:48.992Z,53.82
2018-05-11T04:49:49.072Z,53.84
2018-05-11T04:50:49.142Z,53.85
2018-05-11T04:51:49.009Z,53.84
2018-05-11T04:52:49.109Z,53.77
2018-05-11T04:53:49.236Z,53.83
2018-05-11T04:54:49.117Z,53.79
2018-05-11T04:55:49.192Z,53.78
2018-05-11T04:56:48.987Z,53.8
2018-05-11T04:57:49.068Z,53.77
2018-05-11T04:58:49.084Z,53.81
2018-05-11T04:59:49.183Z,53.82
2018-05-11T05:00:49.001Z,53.82
2018-05-11T05:01:49.006Z,53.78
2018-05-11T05:02:49.008Z,53.79
2018-05-11T05:03:48.989Z,53.77
2018-05-11T05:04:49.002Z,53.79
2018-05-11T05:05:48.900Z,53.77
2018-05-11T05:06:49.194Z,53.81
2018-05-11T05:07:48.994Z,53.78
2018-05-11T05:08:49.072Z,53.75
2018-05-11T05:09:49.055Z,53.78
2018-05-11T05:10:48.991Z,53.71
2018-05-11T05:11:49.036Z,53.75
2018-05-11T05:12:48.875Z,53.76
2018-05-11T05:13:49.066Z,53.73
2018-05-11T05:14:49.021Z,53.74
2018-05-11T05:15:49.042Z,53.76
2018-05-11T05:16:49.107Z,53.73
2018-05-11T05:17:48.966Z,53.71
2018-05-11T05:18:49.029Z,53.75
2018-05-11T05:19:49.200Z,53.72
2018-05-11T05:20:49.018Z,53.71
2018-05-11T05:21:49.161Z,53.76
2018-05-11T05:22:49.011Z,53.73
2018-05-11T05:23:49.049Z,53.72
2018-05-11T05:24:48.945Z,53.76
2018-05-11T05:25:49.412Z,53.74
2018-05-11T05:26:49.356Z,53.73
2018-05-11T05:27:49.031Z,53.73
2018-05-11T05:28:49.167Z,53.76
2018-05-11T05:29:48.988Z,53.73
2018-05-11T05:30:49.105Z,53.77
2018-05-11T05:31:48.942Z,53.79
2018-05-11T05:32:48.957Z,53.78
2018-05-11T05:33:49.025Z,53.77
2018-05-11T05:34:49.000Z,53.74
2018-05-11T05:35:49.097Z,53.76
2018-05-11T05:36:49.128Z,53.8
2018-05-11T05:37:49.079Z,53.8
2018-05-11T05:38:48.978Z,53.75
2018-05-11T05:39:49.062Z,53.73
2018-05-11T05:40:49.093Z,53.8
2018-05-11T05:41:48.994Z,53.76
2018-05-11T05:42:49.189Z,53.79
2018-05-11T05:43:49.005Z,53.78
2018-05-11T05:44:48.995Z,53.81
2018-05-11T05:45:49.693Z,53.8
2018-05-11T05:46:49.141Z,53.82
2018-05-11T05:47:49.143Z,53.84
2018-05-11T05:48:49.013Z,53.83
2018-05-11T05:49:49.153Z,53.81
2018-05-11T05:50:49.023Z,53.81
2018-05-11T05:51:49.054Z,53.79
2018-05-11T05:52:48.942Z,53.79
2018-05-11T05:53:49.205Z,53.79
2018-05-11T05:54:49.107Z,53.8
2018-05-11T05:55:49.119Z,53.8
2018-05-11T05:56:49.006Z,53.78
2018-05-11T05:57:49.011Z,53.79
2018-05-11T05:58:48.888Z,53.82
2018-05-11T05:59:49.181Z,53.8
2018-05-11T06:00:48.898Z,53.8
2018-05-11T06:01:49.063Z,53.8
2018-05-11T06:02:49.207Z,53.84
2018-05-11T06:03:49.041Z,53.76
2018-05-11T06:04:48.968Z,53.78
2018-05-11T06:05:49.022Z,53.79
2018-05-11T06:06:48.900Z,53.8
2018-05-11T06:07:49.056Z,53.79
2018-05-11T06:08:49.001Z,53.78
2018-05-11T06:09:48.981Z,53.79
2018-05-11T06:10:50.022Z,53.81
2018-05-11T06:11:49.030Z,53.78
2018-05-11T06:12:49.059Z,53.8
2018-05-11T06:13:48.877Z,53.73
2018-05-11T06:14:48.983Z,53.78
2018-05-11T06:15:48.965Z,53.76
2018-05-11T06:16:49.170Z,53.78
2018-05-11T06:17:49.087Z,53.8
2018-05-11T06:18:49.190Z,53.78
2018-05-11T06:19:49.035Z,53.79
2018-05-11T06:20:48.989Z,53.76
2018-05-11T06:21:49.033Z,53.78
2018-05-11T06:22:49.415Z,53.8
2018-05-11T06:23:49.108Z,53.79
2018-05-11T06:24:49.909Z,53.8
2018-05-11T06:25:48.999Z,53.76
2018-05-11T06:26:49.369Z,53.73
2018-05-11T06:27:59.060Z,53.75
2018-05-11T06:28:49.084Z,53.79
2018-05-11T06:29:48.975Z,53.75
2018-05-11T06:30:49.160Z,53.79
2018-05-11T06:31:48.983Z,53.78
2018-05-11T06:32:49.161Z,53.74
2018-05-11T06:33:49.052Z,53.79
2018-05-11T06:34:49.039Z,53.79
2018-05-11T06:35:49.572Z,53.72
2018-05-11T06:36:48.953Z,53.79
2018-05-11T06:37:48.918Z,53.76
2018-05-11T06:38:49.081Z,53.78
2018-05-11T06:39:49.148Z,53.81
2018-05-11T06:40:48.938Z,53.75
2018-05-11T06:41:49.090Z,53.75
2018-05-11T06:42:49.158Z,53.78
2018-05-11T06:43:48.937Z,53.73
2018-05-11T06:44:49.070Z,53.75
2018-05-11T06:45:49.095Z,53.73
2018-05-11T06:46:49.256Z,53.75
2018-05-11T06:47:48.990Z,53.74
2018-05-11T06:48:49.028Z,53.75
2018-05-11T06:49:49.117Z,53.71
2018-05-11T06:50:49.168Z,53.69
2018-05-11T06:51:49.128Z,53.76
2018-05-11T06:52:48.903Z,53.73
2018-05-11T06:53:49.089Z,53.74
2018-05-11T06:54:49.079Z,53.75
2018-05-11T06:55:49.750Z,53.7
2018-05-11T06:56:49.581Z,53.76
2018-05-11T06:57:48.926Z,53.79
2018-05-11T06:58:51.557Z,53.75
2018-05-11T06:59:49.013Z,53.75
2018-05-11T07:00:49.412Z,53.79
2018-05-11T07:01:48.987Z,53.79
2018-05-11T07:02:49.212Z,53.76
2018-05-11T07:03:49.090Z,53.81
2018-05-11T07:04:49.013Z,53.75
2018-05-11T07:05:48.877Z,53.77
2018-05-11T07:06:49.057Z,53.78
2018-05-11T07:07:50.400Z,53.78
2018-05-11T07:08:48.979Z,53.74
2018-05-11T07:09:49.113Z,53.78
2018-05-11T07:10:49.040Z,53.76
2018-05-11T07:11:49.123Z,53.73
2018-05-11T07:12:48.890Z,53.72
2018-05-11T07:13:48.940Z,53.8
2018-05-11T07:14:48.910Z,53.76
2018-05-11T07:15:49.764Z,53.76
2018-05-11T07:16:49.196Z,53.78
2018-05-11T07:17:48.970Z,53.72
2018-05-11T07:18:48.947Z,53.74
2018-05-11T07:19:49.156Z,53.75
2018-05-11T07:20:49.009Z,53.71
2018-05-11T07:21:48.967Z,53.75
2018-05-11T07:22:49.449Z,53.75
2018-05-11T07:23:49.013Z,53.79
2018-05-11T07:24:49.015Z,53.74
2018-05-11T07:25:49.908Z,53.76
2018-05-11T07:26:49.078Z,53.7
2018-05-11T07:27:49.023Z,53.72
2018-05-11T07:28:49.272Z,53.71
2018-05-11T07:29:48.920Z,53.8
2018-05-11T07:30:49.206Z,53.83
2018-05-11T07:31:48.961Z,53.84
2018-05-11T07:32:49.019Z,53.85
2018-05-11T07:33:49.111Z,53.83
2018-05-11T07:34:49.436Z,53.82
2018-05-11T07:35:49.168Z,53.8
2018-05-11T07:36:49.006Z,53.83
2018-05-11T07:37:49.038Z,53.87
2018-05-11T07:38:49.065Z,53.82
2018-05-11T07:39:49.037Z,53.82
2018-05-11T07:40:49.010Z,53.83
2018-05-11T07:41:48.968Z,53.76
2018-05-11T07:42:49.114Z,53.8
2018-05-11T07:43:49.024Z,54.04
2018-05-11T07:44:49.243Z,53.88
2018-05-11T07:45:49.102Z,54.1
2018-05-11T07:46:48.995Z,54.29
2018-05-11T07:47:49.105Z,54.51
2018-05-11T07:48:49.149Z,54.36
2018-05-11T07:49:49.268Z,54.37
2018-05-11T07:50:48.882Z,54.3
2018-05-11T07:51:48.913Z,54.27
2018-05-11T07:52:49.058Z,54.25
2018-05-11T07:53:48.890Z,54.3
2018-05-11T07:54:49.088Z,54.33
2018-05-11T07:55:49.051Z,54.34
2018-05-11T07:56:48.907Z,54.27
2018-05-11T07:57:49.008Z,54.29
2018-05-11T07:58:48.904Z,54.25
2018-05-11T07:59:49.100Z,54.24
2018-05-11T08:00:48.886Z,54.26
2018-05-11T08:01:49.236Z,54.24
2018-05-11T08:02:48.922Z,54.24
2018-05-11T08:03:49.447Z,54.32
2018-05-11T08:04:49.057Z,54.28
2018-05-11T08:05:49.113Z,54.18
2018-05-11T08:06:49.170Z,54.2
2018-05-11T08:07:48.870Z,54.22
2018-05-11T08:08:49.057Z,54.16
2018-05-11T08:09:49.002Z,54.21
2018-05-11T08:10:49.125Z,54.22
2018-05-11T08:11:49.067Z,54.13
2018-05-11T08:12:48.871Z,54.27
2018-05-11T08:13:49.080Z,54.19
2018-05-11T08:14:48.874Z,54.19
2018-05-11T08:15:48.910Z,54.21
2018-05-11T08:16:49.131Z,54.2
2018-05-11T08:17:48.989Z,54.11
2018-05-11T08:18:49.610Z,54.12
2018-05-11T08:19:49.060Z,54.12
2018-05-11T08:20:49.284Z,54.04
2018-05-11T08:21:49.474Z,54.13
2018-05-11T08:22:48.856Z,54.07
2018-05-11T08:23:48.915Z,54.06
2018-05-11T08:24:48.978Z,54.02
2018-05-11T08:25:49.090Z,54.07
2018-05-11T08:26:50.151Z,54.07
2018-05-11T08:27:49.065Z,54.1
2018-05-11T08:28:58.989Z,54.08
2018-05-11T08:29:48.935Z,53.99
2018-05-11T08:30:48.980Z,54.05
2018-05-11T08:31:49.090Z,54
2018-05-11T08:32:48.909Z,54
2018-05-11T08:33:48.986Z,53.97
2018-05-11T08:34:49.095Z,53.97
2018-05-11T08:35:50.106Z,53.97
2018-05-11T08:36:49.130Z,53.99
2018-05-11T08:37:48.985Z,54.03
2018-05-11T08:38:48.956Z,54.05
2018-05-11T08:39:48.948Z,54.03
2018-05-11T08:40:48.891Z,53.99
2018-05-11T08:41:48.929Z,53.91
2018-05-11T08:42:48.933Z,54
2018-05-11T08:43:49.163Z,53.95
2018-05-11T08:44:49.011Z,53.94
2018-05-11T08:45:49.086Z,54.12
2018-05-11T08:46:49.080Z,54.4
2018-05-11T08:47:48.982Z,56.18
2018-05-11T08:48:48.908Z,56.81
2018-05-11T08:49:49.041Z,56.81
2018-05-11T08:50:49.059Z,56.48
2018-05-11T08:51:49.362Z,56.31
2018-05-11T08:52:48.927Z,56.27
2018-05-11T08:53:49.005Z,56.25
2018-05-11T08:54:48.905Z,56.12
2018-05-11T08:55:49.709Z,56.03
2018-05-11T08:56:48.897Z,56
2018-05-11T08:57:49.213Z,55.93
2018-05-11T08:58:49.104Z,55.82
2018-05-11T08:59:49.038Z,55.61
2018-05-11T09:00:48.983Z,55.56
2018-05-11T09:01:49.113Z,55.58
2018-05-11T09:02:48.932Z,55.48
2018-05-11T09:03:48.975Z,55.4
2018-05-11T09:04:48.932Z,55.42
2018-05-11T09:05:48.880Z,55.36
2018-05-11T09:06:49.005Z,55.27
2018-05-11T09:07:48.976Z,55.26
2018-05-11T09:08:49.009Z,55.24
2018-05-11T09:09:49.196Z,55.21
2018-05-11T09:10:49.071Z,55.21
2018-05-11T09:11:48.965Z,55.14
2018-05-11T09:12:48.970Z,55.16
2018-05-11T09:13:48.984Z,55.17
2018-05-11T09:14:48.993Z,55.12
2018-05-11T09:15:49.094Z,55.09
2018-05-11T09:16:48.942Z,55.1
2018-05-11T09:17:48.903Z,55
2018-05-11T09:18:49.122Z,55
2018-05-11T09:19:49.130Z,55.06
2018-05-11T09:20:48.906Z,54.92
2018-05-11T09:21:48.948Z,54.89
2018-05-11T09:22:48.953Z,54.85
2018-05-11T09:23:48.951Z,54.87
2018-05-11T09:24:49.064Z,54.82
2018-05-11T09:25:48.884Z,54.8
2018-05-11T09:26:48.933Z,54.79
2018-05-11T09:27:48.934Z,54.74
2018-05-11T09:28:48.963Z,54.8
2018-05-11T09:29:49.016Z,54.71
2018-05-11T09:30:49.030Z,54.69
2018-05-11T09:31:49.574Z,54.69
2018-05-11T09:32:48.918Z,54.72
2018-05-11T09:33:49.113Z,54.71
2018-05-11T09:34:48.884Z,54.68
2018-05-11T09:35:48.929Z,54.62
2018-05-11T09:36:49.052Z,54.65
2018-05-11T09:37:49.054Z,54.62
2018-05-11T09:38:49.018Z,54.63
2018-05-11T09:39:50.323Z,54.56
2018-05-11T09:40:49.068Z,54.56
2018-05-11T09:41:49.028Z,55.4
2018-05-11T09:42:14.264Z,57.33
2018-05-11T09:43:14.434Z,54.54
2018-05-11T09:44:14.570Z,54.66
2018-05-11T09:45:14.445Z,54.75
2018-05-11T09:46:14.328Z,54.45
2018-05-11T09:47:14.333Z,54.88
2018-05-11T09:48:14.327Z,55.18
2018-05-11T09:49:14.462Z,55.02
2018-05-11T09:50:14.444Z,55.01
2018-05-11T09:51:14.336Z,54.97
2018-05-11T09:52:24.341Z,54.86
2018-05-11T09:53:14.489Z,54.8
2018-05-11T09:54:14.332Z,54.98
2018-05-11T09:55:14.469Z,54.98
2018-05-11T09:56:14.563Z,55.18
2018-05-11T09:57:14.274Z,55.14
2018-05-11T09:58:14.338Z,55.2
2018-05-11T09:59:14.283Z,55.3
2018-05-11T10:00:14.488Z,55.15
2018-05-11T10:01:14.301Z,55.09
2018-05-11T10:02:14.408Z,55.5
2018-05-11T10:03:14.406Z,55.39
2018-05-11T10:04:14.298Z,55.09
2018-05-11T10:05:14.328Z,55.52
2018-05-11T10:06:14.375Z,55.52
2018-05-11T10:07:14.433Z,55.28
2018-05-11T10:08:14.557Z,55.87
2018-05-11T10:09:14.510Z,55.14
2018-05-11T10:10:14.463Z,55.35
2018-05-11T10:11:14.329Z,54.54
2018-05-11T10:12:14.463Z,54.86
2018-05-11T10:13:14.367Z,55.06
2018-05-11T10:14:14.341Z,55.2
2018-05-11T10:15:14.565Z,55.35
2018-05-11T10:16:14.359Z,55.14
2018-05-11T10:17:14.432Z,55.37
2018-05-11T10:18:14.505Z,55.37
2018-05-11T10:19:14.437Z,55.28
2018-05-11T10:20:14.449Z,55.45
2018-05-11T10:21:14.340Z,55.52
2018-05-11T10:22:14.511Z,55.3
2018-05-11T10:23:14.258Z,55.45
2018-05-11T10:24:14.364Z,55.47
2018-05-11T10:25:14.294Z,55.28
2018-05-11T10:26:14.400Z,55.34
2018-05-11T10:27:14.534Z,55.45
2018-05-11T10:28:14.593Z,55.21
2018-05-11T10:29:14.429Z,55.41
2018-05-11T10:30:14.422Z,55.33
2018-05-11T10:31:14.372Z,55.18
2018-05-11T10:32:14.266Z,55.25
2018-05-11T10:33:14.834Z,55.37
2018-05-11T10:34:14.485Z,55.07
2018-05-11T10:35:14.306Z,55.08
2018-05-11T10:36:14.290Z,55.33
2018-05-11T10:37:14.369Z,55.09
2018-05-11T10:38:14.381Z,55.22
2018-05-11T10:39:14.423Z,55.21
2018-05-11T10:40:14.458Z,55.36
2018-05-11T10:41:14.368Z,55.48
2018-05-11T10:42:14.412Z,55.5
2018-05-11T10:43:14.334Z,55.22
2018-05-11T10:44:14.445Z,55.37
2018-05-11T10:45:14.453Z,55.24
2018-05-11T10:46:14.232Z,55.17
2018-05-11T10:47:14.275Z,55.23
2018-05-11T10:48:14.329Z,55.13
2018-05-11T10:49:14.329Z,55.15
2018-05-11T10:50:14.363Z,55.68
2018-05-11T10:51:14.350Z,55.09
2018-05-11T10:52:14.404Z,55.23
2018-05-11T10:53:14.421Z,55.15
2018-05-11T10:54:14.820Z,55.34
2018-05-11T10:55:14.419Z,55.15
2018-05-11T10:56:14.378Z,55.33
2018-05-11T10:57:14.396Z,55.33
2018-05-11T10:58:14.556Z,55.3
2018-05-11T10:59:14.374Z,55.28
2018-05-11T11:00:14.316Z,55.2
2018-05-11T11:01:24.490Z,55.31
2018-05-11T11:02:14.658Z,55.04
2018-05-11T11:03:14.515Z,55.09
2018-05-11T11:04:14.457Z,54.97
2018-05-11T11:05:14.477Z,55.35
2018-05-11T11:05:55.039Z,55
2018-05-11T11:06:17.354Z,55
2018-05-11T11:07:17.479Z,54.95
2018-05-11T11:08:17.537Z,55.17
2018-05-11T11:09:17.437Z,55.17
2018-05-11T11:10:17.531Z,54.98
2018-05-11T11:11:17.419Z,54.97
2018-05-11T11:12:17.434Z,55.07
2018-05-11T11:13:00.707Z,55.02
2018-05-11T11:14:00.994Z,55.18
2018-05-11T11:15:01.130Z,55.35
2018-05-11T11:16:00.984Z,55.26
2018-05-11T11:17:00.935Z,55.16
2018-05-11T11:18:01.992Z,55.37
2018-05-11T11:19:01.171Z,55.24
2018-05-11T11:20:01.910Z,55.13
2018-05-11T11:21:01.302Z,55.26
2018-05-11T11:22:01.053Z,55.26
2018-05-11T11:23:00.933Z,55.3
2018-05-11T11:24:00.466Z,55.3
2018-05-11T11:25:00.332Z,55.19
2018-05-11T11:26:01.304Z,54.89
2018-05-11T11:27:00.421Z,55.11
2018-05-11T11:28:00.335Z,55.16
2018-05-11T11:29:00.448Z,54.93
2018-05-11T11:30:00.492Z,55.16
2018-05-11T11:31:00.413Z,54.94
2018-05-11T11:32:00.424Z,54.89
2018-05-11T11:33:00.534Z,54.85
2018-05-11T11:34:00.535Z,55.01
2018-05-11T11:34:35.281Z,54.99
2018-05-11T11:35:35.162Z,55.05
2018-05-11T11:36:34.978Z,54.89
2018-05-11T11:37:34.944Z,54.84
2018-05-11T11:38:34.989Z,54.96
2018-05-11T11:39:34.792Z,54.98
2018-05-11T11:40:49.355Z,54.9
2018-05-11T11:41:50.212Z,54.76
2018-05-11T11:42:49.375Z,55.09
2018-05-11T11:43:57.132Z,54.99
2018-05-11T11:44:57.218Z,55.01
2018-05-11T11:45:57.184Z,55.16
2018-05-11T11:46:57.283Z,54.94
2018-05-11T11:47:57.076Z,55.05
2018-05-11T11:48:57.120Z,55.1
2018-05-11T11:49:57.073Z,55.18
2018-05-11T11:50:57.115Z,55.08
2018-05-11T11:51:57.271Z,55.06
2018-05-11T11:52:56.993Z,55.01
2018-05-11T11:53:57.211Z,54.89
2018-05-11T11:54:57.104Z,54.86
2018-05-11T11:55:57.231Z,54.95
2018-05-11T11:56:57.358Z,55
2018-05-11T11:57:57.043Z,54.92
2018-05-11T11:58:57.306Z,54.92
2018-05-11T11:59:57.129Z,54.83
2018-05-11T12:00:57.251Z,54.85
2018-05-11T12:01:57.792Z,54.87
2018-05-11T12:02:57.408Z,54.78
2018-05-11T12:03:57.418Z,54.93
2018-05-11T12:04:57.225Z,54.91
2018-05-11T12:05:57.175Z,54.88
2018-05-11T12:06:57.372Z,54.77
2018-05-11T12:07:57.170Z,54.83
2018-05-11T12:08:57.698Z,54.83
2018-05-11T12:09:57.424Z,54.68
2018-05-11T12:10:57.300Z,54.71
2018-05-11T12:11:57.175Z,54.75
2018-05-11T12:12:57.197Z,54.8
2018-05-11T12:13:57.237Z,54.83
2018-05-11T12:14:57.415Z,54.71
2018-05-11T12:15:57.117Z,54.75
2018-05-11T12:16:57.249Z,54.76
2018-05-11T12:17:57.280Z,54.73
2018-05-11T12:18:57.171Z,54.78
2018-05-11T12:19:57.192Z,54.78
2018-05-11T12:20:57.088Z,54.83
2018-05-11T12:21:57.335Z,54.87
2018-05-11T12:22:57.040Z,54.9
2018-05-11T12:23:57.286Z,54.92
2018-05-11T12:24:57.355Z,54.84
2018-05-11T12:25:57.198Z,54.82
2018-05-11T12:26:57.122Z,54.9
2018-05-11T12:27:57.255Z,54.89
2018-05-11T12:28:57.025Z,54.9
2018-05-11T12:29:57.081Z,54.94
2018-05-11T12:30:56.997Z,54.9
2018-05-11T12:31:57.030Z,54.85
2018-05-11T12:32:57.149Z,54.9
2018-05-11T12:33:57.154Z,54.89
2018-05-11T12:34:57.925Z,54.92
2018-05-11T12:35:57.212Z,54.94
2018-05-11T19:00:52.950Z,62.35
2018-05-11T19:01:53.091Z,61.46
2018-05-11T19:03:03.075Z,60.95
2018-05-11T19:03:52.974Z,60.21
2018-05-11T19:04:53.117Z,60.24
2018-05-11T19:05:53.102Z,59.24
2018-05-11T19:06:53.122Z,58.88
2018-05-11T19:07:53.021Z,59.26
2018-05-11T19:08:53.927Z,58.19
2018-05-11T19:09:53.144Z,57.98
2018-05-11T19:10:53.075Z,58.33
2018-05-11T19:11:53.220Z,57.6
2018-05-11T19:12:53.354Z,57.8
2018-05-11T19:13:53.303Z,57.79
2018-05-11T19:14:52.892Z,57.14
2018-05-11T19:15:53.050Z,56.99
2018-05-11T19:16:53.066Z,57.18
2018-05-11T19:17:53.700Z,57.23
2018-05-11T19:18:53.022Z,56.82
2018-05-11T19:19:53.260Z,56.95